Kaneville, IL (60144)

04:41 CDT le 25 août 2016 (GMT -0500)
Ravelins Subdivision | | Change Station

Alt. 787 ft 41.83 °N, 88.53 °W | Updated 1 minute ago

Mostly Cloudy
Nuageux
69.6 ° F
Paraît 69.6 ° F
N
0.0
Vent Variable Vent de SSO

Aujourd'hui
Haut(e) -- | Bas -- ° F
--% Risque de précip.
Hier
Haut(e) -- | Bas -- ° F
Precip. -- pouce
Pression 29.98 pouce
Visibilité 10.0 Miles terrestres
Nuages Nuageux 2000 ft
Nuageux 3300 ft
Nuageux 12000 ft
Point de rosée 68 ° F
Humidité 93%
Précipitations 0.05 pouce
Profondeur de la couche neigeuse Non disponible.
6:13 AM 7:38 PM
Lune gibbeuse décroissante, 47% visible
METAR KARR 250852Z AUTO 23006KT 10SM BKN020 BKN033 BKN120 22/21 A3000 RMK AO2 SLP152 60000 T02220206 52008
Pression 29.98 pouce
Visibilité 10.0 Miles terrestres
Nuages Nuageux 2000 ft
Nuageux 3300 ft
Nuageux 12000 ft
Point de rosée 68 ° F
Humidité 93%
Précipitations 0.05 pouce
Profondeur de la couche neigeuse Non disponible.
6:13 AM 7:38 PM
Lune gibbeuse décroissante, 47% visible
METAR KARR 250852Z AUTO 23006KT 10SM BKN020 BKN033 BKN120 22/21 A3000 RMK AO2 SLP152 60000 T02220206 52008

10-Day Weather Forecast

Almanac

Astronomie

Aug. 25, 2016 Lever Coucher
Temps réel
Crépuscule civil
Crépuscule nautique
Crépuscule astronomique
Lune
Durée de lumière visible
Longueur du jour
Tomorrow will be .
, % of the Moon is Illuminated

Extrêmes aujourd'hui

State Highs State Lows

Community

WunderPhotos

Upload Photos

1,934,818 Photos téléchargées !

WunderBlog® & News

Nearby

Qualité de l'air

  Qualité de l'air Indice de la qualité de l'air Polluant
Not available.

Épaisseur de neige

Station Depth Altitude

Activité sismique

Ville Distance Mag. Time & Date
Minimum magnitude displayed is 2.5.

Températures des eaux côtières

Lieu Température

Stations

Stations météo à proximité

Emplacement de la station Température Refroidissement éolien Point de rosée Humidité Vent Precip. Alt. Mise à jour Type
                   

Watches & Warnings

There are currently no watches in effect.